Terminal Aerodrome Forecast
Issued by NWS

Home | Current Version | Previous Version | Text Only | Print | Product List | Glossary On
Versions: 1 2 3 4 5 6 7 8 9 10 11 12 13 14 15 16 17 18 19 20 21 22 23 24 25 26 27 28
000
FTUS41 KBGM 300500
TAFITH
TAF
KITH 300536Z 3006/3106 11003KT P6SM BKN070
     FM301500 20007KT P6SM OVC070
     FM301800 22008KT P6SM -SHRA OVC070
      TEMPO 3020/3024 5SM -SHRA OVC060
     FM310000 16004KT P6SM BKN120=

USA.gov is the U.S. government's official web portal to all federal, state and local government web resources and services.